Time;durP1;ratioP1;P1;durP2;ratioP2;P2;SDS_P1;SDS_P2;PMS_P1;PMS_P2;Temp;Humidity;BMP_temperature;BMP_pressure;BME280_temperature;BME280_humidity;BME280_pressure;Samples;Min_cycle;Max_cycle;Signal;HPM_P1;HPM_P2
2022/07/25 00:00:09;;;;;;;8.73;5.70;;;24.40;62.70;;;;;;5115505;28;20032;-75
2022/07/25 00:02:35;;;;;;;8.75;5.68;;;24.30;62.40;;;;;;5115417;28;20024;-75
2022/07/25 00:05:01;;;;;;;8.07;6.10;;;24.30;62.40;;;;;;5115428;28;20057;-75
2022/07/25 00:07:27;;;;;;;10.38;6.05;;;24.30;62.60;;;;;;5115312;28;20028;-75
2022/07/25 00:09:53;;;;;;;9.50;5.68;;;24.20;63.00;;;;;;5115076;28;20040;-75
2022/07/25 00:12:19;;;;;;;8.60;5.50;;;24.10;63.50;;;;;;5097430;28;20032;-75
2022/07/25 00:14:45;;;;;;;9.32;5.70;;;24.10;63.70;;;;;;5115247;28;20020;-75
2022/07/25 00:17:10;;;;;;;10.40;5.80;;;23.90;63.80;;;;;;5115178;28;20070;-75
2022/07/25 00:19:36;;;;;;;10.48;6.18;;;23.80;63.70;;;;;;5115170;28;20027;-75
2022/07/25 00:22:02;;;;;;;12.18;7.18;;;23.60;64.30;;;;;;5115068;28;20035;-75
2022/07/25 00:24:28;;;;;;;11.48;7.22;;;23.60;65.00;;;;;;5097205;28;20035;-75
2022/07/25 00:26:54;;;;;;;11.07;7.75;;;23.60;64.60;;;;;;5114932;28;20096;-75
2022/07/25 00:29:19;;;;;;;11.23;7.80;;;23.70;64.50;;;;;;5114799;28;20028;-75
2022/07/25 00:31:45;;;;;;;10.27;7.15;;;23.80;64.70;;;;;;5114890;28;20024;-75
2022/07/25 00:34:11;;;;;;;12.40;7.13;;;23.80;64.50;;;;;;5114818;28;20027;-75
2022/07/25 00:36:36;;;;;;;10.15;6.82;;;23.80;64.60;;;;;;5114810;28;20023;-75
2022/07/25 00:39:03;;;;;;;10.88;7.50;;;23.60;64.40;;;;;;5114764;28;20503;-75
2022/07/25 00:41:28;;;;;;;12.63;7.07;;;23.60;64.80;;;;;;5114726;28;20471;-75
2022/07/25 00:43:54;;;;;;;12.23;7.30;;;23.60;65.30;;;;;;5113736;28;20032;-75
2022/07/25 00:46:19;;;;;;;12.73;7.43;;;23.60;65.40;;;;;;5114619;28;20092;-75
2022/07/25 00:48:46;;;;;;;12.55;7.25;;;23.60;65.50;;;;;;5114516;28;20118;-75
2022/07/25 00:51:12;;;;;;;11.82;7.68;;;23.40;65.90;;;;;;5114493;28;20083;-75
2022/07/25 00:53:38;;;;;;;10.85;7.68;;;23.40;66.10;;;;;;5114481;28;20042;-75
2022/07/25 00:56:05;;;;;;;11.27;6.95;;;23.40;65.60;;;;;;5096541;28;20024;-75
2022/07/25 00:58:31;;;;;;;10.23;7.03;;;23.40;65.90;;;;;;5114425;28;20031;-75
2022/07/25 01:00:57;;;;;;;8.90;6.60;;;23.50;65.60;;;;;;5114323;28;20049;-75
2022/07/25 01:03:23;;;;;;;9.13;7.10;;;23.50;65.30;;;;;;5114298;28;20016;-75
2022/07/25 01:05:49;;;;;;;10.85;7.00;;;23.50;65.30;;;;;;5114403;28;20072;-75
2022/07/25 01:08:17;;;;;;;11.77;6.70;;;23.40;65.10;;;;;;5113965;28;20035;-75
2022/07/25 01:10:44;;;;;;;12.00;7.78;;;23.30;65.40;;;;;;5114237;28;20042;-75
2022/07/25 01:13:10;;;;;;;14.20;8.65;;;23.20;65.70;;;;;;5114148;28;20039;-75
2022/07/25 01:15:36;;;;;;;11.73;8.30;;;23.20;65.70;;;;;;5114063;28;20054;-75
2022/07/25 01:18:02;;;;;;;12.02;7.95;;;23.20;65.50;;;;;;5114041;28;20028;-75
2022/07/25 01:20:30;;;;;;;13.25;8.35;;;23.20;65.80;;;;;;5114022;28;20455;-75
2022/07/25 01:22:57;;;;;;;14.57;9.65;;;23.20;65.70;;;;;;5113963;28;20024;-75
2022/07/25 01:25:23;;;;;;;12.80;9.02;;;23.10;65.70;;;;;;5113954;28;20079;-75
2022/07/25 01:27:50;;;;;;;16.08;9.13;;;23.10;66.00;;;;;;5113755;28;20031;-75
2022/07/25 01:30:16;;;;;;;13.10;8.60;;;23.20;65.90;;;;;;5113790;28;20020;-75
2022/07/25 01:32:43;;;;;;;13.27;8.48;;;23.20;65.90;;;;;;5095964;28;20058;-75
2022/07/25 01:35:09;;;;;;;15.57;9.20;;;23.10;66.40;;;;;;5113761;28;20143;-75
2022/07/25 01:37:35;;;;;;;10.85;8.20;;;23.00;66.80;;;;;;5113754;28;20032;-75
2022/07/25 01:40:01;;;;;;;11.95;8.77;;;23.00;67.10;;;;;;5113710;28;20036;-75
2022/07/25 01:42:27;;;;;;;15.20;8.93;;;23.00;67.10;;;;;;5113698;28;20030;-75
2022/07/25 01:44:53;;;;;;;14.02;8.68;;;23.00;66.90;;;;;;5113662;28;20079;-75
2022/07/25 01:47:19;;;;;;;11.05;8.15;;;22.80;66.50;;;;;;5113630;28;20034;-75
2022/07/25 01:49:44;;;;;;;12.32;8.98;;;22.70;66.90;;;;;;5113511;28;20085;-75
2022/07/25 01:52:11;;;;;;;12.98;9.23;;;22.60;68.30;;;;;;5113591;28;20020;-75
2022/07/25 01:54:37;;;;;;;14.65;9.18;;;22.80;67.20;;;;;;5113344;28;20099;-75
2022/07/25 01:57:03;;;;;;;14.10;9.07;;;22.90;66.80;;;;;;5113538;28;20032;-75
2022/07/25 01:59:29;;;;;;;14.02;9.10;;;22.90;66.90;;;;;;5095936;28;20024;-75
2022/07/25 02:01:54;;;;;;;12.85;8.32;;;22.90;66.60;;;;;;5113477;28;20078;-75
2022/07/25 02:04:20;;;;;;;13.07;9.15;;;23.00;66.10;;;;;;5113487;28;20030;-75
2022/07/25 02:06:46;;;;;;;12.68;8.38;;;23.00;66.20;;;;;;5113442;28;20028;-75
2022/07/25 02:09:11;;;;;;;11.50;8.55;;;22.90;66.30;;;;;;5113177;28;20542;-75
2022/07/25 02:11:37;;;;;;;13.63;9.07;;;22.90;66.70;;;;;;5113434;28;20028;-75
2022/07/25 02:14:03;;;;;;;13.75;9.23;;;22.80;66.80;;;;;;5113387;28;20032;-75
2022/07/25 02:16:29;;;;;;;13.40;9.30;;;22.80;67.30;;;;;;5095488;28;20017;-75
2022/07/25 02:18:54;;;;;;;17.02;8.93;;;22.70;66.90;;;;;;5113304;28;20028;-75
2022/07/25 02:21:20;;;;;;;16.20;9.38;;;22.60;67.20;;;;;;5113324;28;20479;-75
2022/07/25 02:23:46;;;;;;;13.85;9.45;;;22.50;67.30;;;;;;5113263;28;20055;-75
2022/07/25 02:26:12;;;;;;;14.25;10.20;;;22.40;67.50;;;;;;5113231;28;20052;-75
2022/07/25 02:28:39;;;;;;;15.15;9.70;;;22.50;67.40;;;;;;5113101;28;20032;-75
2022/07/25 02:31:04;;;;;;;14.95;9.80;;;22.50;66.90;;;;;;5113182;28;20035;-75
2022/07/25 02:33:30;;;;;;;14.88;10.10;;;22.60;66.40;;;;;;5113352;28;20458;-75
2022/07/25 02:35:56;;;;;;;14.55;9.70;;;22.60;66.40;;;;;;5113170;28;20029;-75
2022/07/25 02:38:21;;;;;;;14.90;9.60;;;22.60;66.50;;;;;;5113145;28;20036;-75
2022/07/25 02:40:48;;;;;;;17.80;10.45;;;22.60;66.00;;;;;;5113156;28;20032;-75
2022/07/25 02:43:14;;;;;;;16.23;10.63;;;22.70;65.80;;;;;;5113119;28;20042;-75
2022/07/25 02:45:40;;;;;;;16.48;11.07;;;22.70;65.90;;;;;;5113119;28;20017;-75
2022/07/25 02:48:06;;;;;;;16.05;10.18;;;22.80;66.10;;;;;;5113052;28;20024;-75
2022/07/25 02:50:31;;;;;;;16.27;10.80;;;22.80;66.30;;;;;;5113122;28;20099;-75
2022/07/25 02:52:57;;;;;;;19.15;11.45;;;22.80;65.80;;;;;;5113021;28;20100;-75
2022/07/25 02:55:22;;;;;;;15.70;10.90;;;22.90;65.20;;;;;;5113005;28;20032;-75
2022/07/25 02:57:48;;;;;;;17.48;10.13;;;22.90;64.90;;;;;;5112998;28;20032;-75
2022/07/25 03:00:15;;;;;;;15.50;10.20;;;22.90;64.90;;;;;;5112956;28;20028;-75
2022/07/25 03:02:40;;;;;;;17.35;10.70;;;22.90;64.70;;;;;;5095282;28;20054;-75
2022/07/25 03:05:08;;;;;;;16.42;10.68;;;22.90;64.60;;;;;;5112881;28;20024;-75
2022/07/25 03:07:34;;;;;;;14.23;9.98;;;22.90;64.60;;;;;;5115745;28;20024;-75
2022/07/25 03:10:00;;;;;;;15.70;9.90;;;22.90;64.70;;;;;;5098366;28;20048;-75
2022/07/25 03:12:26;;;;;;;16.98;10.07;;;22.90;64.60;;;;;;5116480;28;20073;-75
2022/07/25 03:14:51;;;;;;;14.52;9.43;;;22.90;64.50;;;;;;5116450;28;20035;-75
2022/07/25 03:17:17;;;;;;;17.08;10.73;;;23.00;64.30;;;;;;5098379;28;20035;-75
2022/07/25 03:19:43;;;;;;;15.00;9.65;;;22.90;64.20;;;;;;5116331;28;20050;-75
2022/07/25 03:22:09;;;;;;;12.55;9.38;;;23.00;64.10;;;;;;5116278;28;20039;-75
2022/07/25 03:24:35;;;;;;;14.70;9.52;;;23.00;63.70;;;;;;5116236;28;20031;-75
2022/07/25 03:27:02;;;;;;;13.00;9.15;;;23.00;63.60;;;;;;5116177;28;20475;-75
2022/07/25 03:29:27;;;;;;;15.82;9.95;;;23.00;63.60;;;;;;5116137;28;20032;-75
2022/07/25 03:31:53;;;;;;;12.55;8.93;;;22.90;63.80;;;;;;5116076;28;20055;-75
2022/07/25 03:34:18;;;;;;;15.15;9.18;;;22.90;63.70;;;;;;5116027;28;20028;-75
2022/07/25 03:36:44;;;;;;;14.15;8.30;;;22.90;63.50;;;;;;5115991;28;20029;-75
2022/07/25 03:39:10;;;;;;;12.23;8.63;;;22.90;63.60;;;;;;5115939;28;20020;-75
2022/07/25 03:41:35;;;;;;;13.13;8.07;;;22.90;64.10;;;;;;5115896;28;20028;-75
2022/07/25 03:44:01;;;;;;;13.48;7.93;;;22.90;64.40;;;;;;5115884;28;20016;-75
2022/07/25 03:46:26;;;;;;;13.13;8.02;;;22.90;64.00;;;;;;5115804;28;20039;-75
2022/07/25 03:48:54;;;;;;;12.20;7.82;;;22.90;63.70;;;;;;5115700;28;20024;-75
2022/07/25 03:51:19;;;;;;;12.27;8.20;;;22.90;62.90;;;;;;5115725;28;20022;-75
2022/07/25 03:54:00;;;;;;;12.02;7.32;;;22.80;63.10;;;;;;5115677;28;20020;-75
2022/07/25 03:56:31;;;;;;;12.00;7.80;;;22.80;63.20;;;;;;5115763;28;20021;-75
2022/07/25 03:58:56;;;;;;;14.02;7.97;;;22.80;63.20;;;;;;5115620;28;20070;-75
2022/07/25 04:01:22;;;;;;;12.73;7.97;;;22.80;63.10;;;;;;5097683;28;20091;-75
2022/07/25 04:03:47;;;;;;;13.93;8.50;;;22.90;62.90;;;;;;5115458;28;20085;-75
2022/07/25 04:06:13;;;;;;;10.98;7.82;;;22.90;63.70;;;;;;5115437;28;20019;-75
2022/07/25 04:08:39;;;;;;;13.70;8.27;;;22.90;62.70;;;;;;5115133;28;20052;-75
2022/07/25 04:11:04;;;;;;;12.57;8.02;;;22.90;62.60;;;;;;5115478;28;20028;-75
2022/07/25 04:13:30;;;;;;;13.40;8.30;;;23.00;62.60;;;;;;5115266;28;20046;-75
2022/07/25 04:15:56;;;;;;;11.95;7.60;;;22.90;62.40;;;;;;5115223;28;20020;-75
2022/07/25 04:18:21;;;;;;;11.93;7.35;;;22.90;62.30;;;;;;5115227;28;20544;-75
2022/07/25 04:20:47;;;;;;;11.98;7.55;;;22.90;62.20;;;;;;5115136;28;20032;-75
2022/07/25 04:23:13;;;;;;;11.30;7.47;;;22.90;62.20;;;;;;5115071;28;20028;-75
2022/07/25 04:25:38;;;;;;;12.90;7.57;;;22.90;62.30;;;;;;5115044;28;20021;-75
2022/07/25 04:28:04;;;;;;;11.23;7.40;;;22.90;62.20;;;;;;5096984;28;20135;-75
2022/07/25 04:30:29;;;;;;;13.07;8.20;;;22.90;62.00;;;;;;5114901;28;20024;-75
2022/07/25 04:32:55;;;;;;;11.32;7.45;;;22.80;62.10;;;;;;5114884;28;20429;-75
2022/07/25 04:35:21;;;;;;;12.35;7.80;;;22.80;62.30;;;;;;5114840;28;20024;-75
2022/07/25 04:37:47;;;;;;;13.07;8.02;;;22.80;63.10;;;;;;5114821;28;20024;-75
2022/07/25 04:40:12;;;;;;;14.45;7.90;;;22.80;62.30;;;;;;5114754;28;20032;-75
2022/07/25 04:42:38;;;;;;;11.82;7.22;;;22.70;62.50;;;;;;5114739;28;20036;-75
2022/07/25 04:45:04;;;;;;;12.45;7.72;;;22.60;62.90;;;;;;5114658;28;20054;-75
2022/07/25 04:47:29;;;;;;;12.55;7.22;;;22.70;63.20;;;;;;5114656;28;20047;-75
2022/07/25 04:49:55;;;;;;;12.07;7.45;;;22.70;63.50;;;;;;5114617;28;20474;-75
2022/07/25 04:52:21;;;;;;;12.73;7.35;;;22.60;63.60;;;;;;5114567;28;20021;-75
2022/07/25 04:54:46;;;;;;;10.15;6.90;;;22.70;63.60;;;;;;5114474;28;20437;-75
2022/07/25 04:57:13;;;;;;;12.27;7.25;;;22.70;63.70;;;;;;5114563;28;20034;-75
2022/07/25 04:59:38;;;;;;;11.90;7.30;;;22.80;63.70;;;;;;5114439;28;20032;-75
2022/07/25 05:02:04;;;;;;;12.48;8.07;;;22.80;63.60;;;;;;5096543;28;20051;-75
2022/07/25 05:04:30;;;;;;;11.68;7.18;;;22.80;63.70;;;;;;5114277;28;20028;-75
2022/07/25 05:06:55;;;;;;;14.13;7.18;;;22.80;63.50;;;;;;5096266;28;20035;-76
2022/07/25 05:09:21;;;;;;;10.70;6.95;;;22.80;63.90;;;;;;5113979;28;20048;-75
2022/07/25 05:11:46;;;;;;;11.25;7.22;;;22.80;64.10;;;;;;5114148;28;20050;-75
2022/07/25 05:14:12;;;;;;;12.77;7.15;;;22.90;64.00;;;;;;5096308;28;20032;-75
2022/07/25 05:16:38;;;;;;;14.13;8.00;;;22.90;64.50;;;;;;5114107;28;20047;-75
2022/07/25 05:19:04;;;;;;;12.82;7.47;;;22.90;64.10;;;;;;5096186;28;20437;-75
2022/07/25 05:21:31;;;;;;;11.93;7.28;;;22.90;64.30;;;;;;5114166;28;20027;-75
2022/07/25 05:23:56;;;;;;;14.82;8.60;;;23.00;64.10;;;;;;5113956;28;20024;-75
2022/07/25 05:26:22;;;;;;;14.57;8.98;;;23.00;64.40;;;;;;5113944;28;20047;-75
2022/07/25 05:28:47;;;;;;;16.90;8.65;;;23.00;64.10;;;;;;5113257;28;20109;-75
2022/07/25 05:31:13;;;;;;;12.57;8.32;;;23.00;64.10;;;;;;5113877;28;20031;-75
2022/07/25 05:33:38;;;;;;;13.52;8.60;;;23.10;64.60;;;;;;5113846;28;20077;-73
2022/07/25 05:36:04;;;;;;;14.88;9.07;;;23.00;64.60;;;;;;5113799;28;20024;-73
2022/07/25 05:38:30;;;;;;;12.45;8.90;;;23.10;64.50;;;;;;5113784;28;20020;-73
2022/07/25 05:40:56;;;;;;;15.73;9.63;;;23.10;64.90;;;;;;5113776;28;20023;-73
2022/07/25 05:43:21;;;;;;;13.40;8.98;;;23.20;64.50;;;;;;5113678;28;20499;-73
2022/07/25 05:45:47;;;;;;;13.90;8.77;;;23.10;64.00;;;;;;5113664;28;20024;-73
2022/07/25 05:48:13;;;;;;;12.90;8.50;;;23.10;63.90;;;;;;5113760;28;20024;-73
2022/07/25 05:50:40;;;;;;;14.02;9.15;;;23.10;63.90;;;;;;5113544;28;20020;-73
2022/07/25 05:53:06;;;;;;;14.63;8.75;;;23.20;64.10;;;;;;5113620;28;20017;-73
2022/07/25 05:55:32;;;;;;;12.77;8.75;;;23.20;63.90;;;;;;5113603;28;20024;-73
2022/07/25 05:57:58;;;;;;;12.95;8.60;;;23.20;63.90;;;;;;5113505;28;20028;-73
2022/07/25 06:00:24;;;;;;;15.20;8.38;;;23.20;64.00;;;;;;5113497;28;20028;-73
2022/07/25 06:02:50;;;;;;;13.18;8.32;;;23.20;63.70;;;;;;5095653;28;20040;-73
2022/07/25 06:05:15;;;;;;;11.98;7.70;;;23.30;63.40;;;;;;5113600;28;20075;-73
2022/07/25 06:07:41;;;;;;;12.18;7.75;;;23.30;63.10;;;;;;5113317;28;20097;-73
2022/07/25 06:10:07;;;;;;;12.80;7.45;;;23.30;63.10;;;;;;5113227;28;20040;-74
2022/07/25 06:12:33;;;;;;;11.65;7.00;;;23.30;62.40;;;;;;5113399;28;20044;-73
2022/07/25 06:14:59;;;;;;;8.13;5.93;;;23.40;62.30;;;;;;5113364;28;20055;-74
2022/07/25 06:17:25;;;;;;;10.00;5.55;;;23.40;62.10;;;;;;5113357;28;20051;-75
2022/07/25 06:19:51;;;;;;;8.57;5.32;;;23.40;61.60;;;;;;5113353;28;20028;-75
2022/07/25 06:22:18;;;;;;;8.80;5.70;;;23.50;61.10;;;;;;5113276;28;20038;-75
2022/07/25 06:24:44;;;;;;;9.00;5.28;;;23.50;62.40;;;;;;5113271;28;20024;-75
2022/07/25 06:27:10;;;;;;;8.38;5.15;;;23.50;61.50;;;;;;5113248;28;20025;-73
2022/07/25 06:29:37;;;;;;;10.73;5.47;;;23.60;61.30;;;;;;5113155;28;20052;-74
2022/07/25 06:32:03;;;;;;;9.77;5.78;;;23.60;61.30;;;;;;5113224;28;20055;-75
2022/07/25 06:34:29;;;;;;;9.10;5.85;;;23.60;61.10;;;;;;5113168;28;20021;-73
2022/07/25 06:36:56;;;;;;;11.32;7.00;;;23.60;61.40;;;;;;5113193;28;20020;-73
2022/07/25 06:39:22;;;;;;;10.63;6.35;;;23.60;61.30;;;;;;5113191;28;20032;-73
2022/07/25 06:41:48;;;;;;;11.13;6.65;;;23.60;61.00;;;;;;5115003;28;20028;-73
2022/07/25 06:44:14;;;;;;;12.18;7.07;;;23.60;61.10;;;;;;5117009;28;20038;-73
2022/07/25 06:46:40;;;;;;;12.32;6.78;;;23.60;61.10;;;;;;5116957;28;20035;-74
2022/07/25 06:49:05;;;;;;;10.73;6.57;;;23.60;60.90;;;;;;5116850;28;20050;-73
2022/07/25 06:51:31;;;;;;;10.30;6.55;;;23.60;60.80;;;;;;5116917;28;20020;-73
2022/07/25 06:53:57;;;;;;;12.60;6.28;;;23.60;60.80;;;;;;5099086;28;20024;-72
2022/07/25 06:56:23;;;;;;;8.98;5.93;;;23.60;60.80;;;;;;5116764;28;20039;-73
2022/07/25 06:58:48;;;;;;;8.32;5.75;;;23.60;60.30;;;;;;5098999;28;20070;-73
2022/07/25 07:01:14;;;;;;;10.63;5.75;;;23.70;60.30;;;;;;5116730;28;20025;-73
2022/07/25 07:03:40;;;;;;;8.20;5.50;;;23.70;60.10;;;;;;5116644;28;20020;-73
2022/07/25 07:06:08;;;;;;;7.78;5.55;;;23.70;60.00;;;;;;5116651;28;20024;-73
2022/07/25 07:08:34;;;;;;;10.55;5.35;;;23.80;60.00;;;;;;5116159;28;20036;-73
2022/07/25 07:11:00;;;;;;;8.65;5.60;;;23.90;60.20;;;;;;5116555;28;20055;-73
2022/07/25 07:13:26;;;;;;;9.50;5.45;;;23.90;59.90;;;;;;5116617;28;20024;-73
2022/07/25 07:15:52;;;;;;;6.72;4.80;;;23.90;60.40;;;;;;5116435;28;20029;-73
2022/07/25 07:18:18;;;;;;;7.72;5.10;;;23.90;58.40;;;;;;5116403;28;20024;-73
2022/07/25 07:20:44;;;;;;;8.30;5.30;;;23.90;58.80;;;;;;5116343;28;20032;-73
2022/07/25 07:23:10;;;;;;;8.65;4.93;;;23.90;58.70;;;;;;5116326;28;20059;-73
2022/07/25 07:25:36;;;;;;;9.27;5.20;;;23.90;58.60;;;;;;5116365;28;20028;-73
2022/07/25 07:28:03;;;;;;;9.57;5.50;;;23.90;58.30;;;;;;5116131;28;20107;-73
2022/07/25 07:30:29;;;;;;;9.07;4.88;;;23.90;58.40;;;;;;5116087;28;20024;-73
2022/07/25 07:32:54;;;;;;;8.13;5.57;;;23.90;58.00;;;;;;5116096;28;20031;-75
2022/07/25 07:35:20;;;;;;;6.75;4.72;;;23.90;57.90;;;;;;5116071;28;20028;-73
2022/07/25 07:37:46;;;;;;;10.82;5.10;;;23.90;57.50;;;;;;5116004;28;20025;-73
2022/07/25 07:40:16;;;;;;;8.77;5.63;;;23.90;58.20;;;;;;5115978;28;20096;-73
2022/07/25 07:42:45;;;;;;;8.70;5.00;;;23.90;58.70;;;;;;5098780;28;20032;-75
2022/07/25 07:45:10;;;;;;;7.13;5.00;;;23.90;58.60;;;;;;5115875;28;20107;-75
2022/07/25 07:47:36;;;;;;;11.50;5.53;;;23.90;58.80;;;;;;5097888;28;20020;-73
2022/07/25 07:50:02;;;;;;;8.02;5.22;;;23.90;59.10;;;;;;5115697;28;20039;-72
2022/07/25 07:52:28;;;;;;;9.90;5.03;;;23.90;58.70;;;;;;5115434;28;20031;-73
2022/07/25 07:57:38;;;;;;;7.40;4.50;;;24.10;58.60;;;;;;5115802;28;20038;-73
2022/07/25 08:00:04;;;;;;;7.85;4.07;;;24.10;58.80;;;;;;5115570;28;20036;-73
2022/07/25 08:02:30;;;;;;;6.93;4.45;;;24.10;58.00;;;;;;5115549;28;20032;-74
2022/07/25 08:04:55;;;;;;;7.65;4.40;;;24.10;58.20;;;;;;5097565;28;20034;-75
2022/07/25 08:07:22;;;;;;;8.00;4.25;;;24.10;58.10;;;;;;5115363;28;20128;-75
2022/07/25 08:09:48;;;;;;;6.60;3.72;;;24.20;58.90;;;;;;5097414;28;20040;-74
2022/07/25 08:12:13;;;;;;;8.07;3.90;;;24.30;58.40;;;;;;5115363;28;20049;-75
2022/07/25 08:14:39;;;;;;;6.63;3.80;;;24.30;58.20;;;;;;5115323;28;20080;-73
2022/07/25 08:17:05;;;;;;;5.40;3.60;;;24.30;58.10;;;;;;5115275;28;20024;-74
2022/07/25 08:19:30;;;;;;;6.60;3.80;;;24.30;58.40;;;;;;5115252;28;20035;-73
2022/07/25 08:21:56;;;;;;;5.80;3.63;;;24.40;60.00;;;;;;5115203;28;20082;-73
2022/07/25 08:24:22;;;;;;;6.15;3.75;;;24.40;59.00;;;;;;5115257;28;20083;-74
2022/07/25 08:26:47;;;;;;;7.85;3.55;;;24.50;58.60;;;;;;5115185;28;20036;-74
2022/07/25 08:29:13;;;;;;;5.63;3.25;;;24.50;59.10;;;;;;5114875;28;20036;-74
2022/07/25 08:31:38;;;;;;;7.88;3.17;;;24.50;58.70;;;;;;5115045;28;20028;-73
2022/07/25 08:34:04;;;;;;;7.18;3.20;;;24.60;59.60;;;;;;5114957;28;20031;-74
2022/07/25 08:36:30;;;;;;;5.93;2.80;;;24.70;59.90;;;;;;5080336;28;20090;-74
2022/07/25 08:38:55;;;;;;;4.80;2.42;;;24.80;60.50;;;;;;5114820;28;20032;-74
2022/07/25 08:41:21;;;;;;;5.20;2.88;;;24.90;59.40;;;;;;5114931;28;20056;-74
2022/07/25 08:43:49;;;;;;;4.07;2.53;;;24.90;58.00;;;;;;5114723;28;20028;-75
2022/07/25 08:46:15;;;;;;;3.88;2.13;;;24.90;58.50;;;;;;5114749;28;20069;-75
2022/07/25 08:48:43;;;;;;;4.32;2.30;;;25.00;58.70;;;;;;5114633;28;20024;-74
2022/07/25 08:51:09;;;;;;;2.83;1.75;;;25.00;58.50;;;;;;5114636;28;20050;-73
2022/07/25 08:53:35;;;;;;;5.55;1.63;;;24.90;58.40;;;;;;5114567;28;20024;-74
2022/07/25 08:56:07;;;;;;;4.30;1.83;;;25.10;59.00;;;;;;5096529;28;20044;-74
2022/07/25 08:58:33;;;;;;;4.38;1.60;;;25.20;58.50;;;;;;5114501;28;20028;-74
2022/07/25 09:00:58;;;;;;;2.45;1.40;;;25.30;58.30;;;;;;5114500;28;20039;-73
2022/07/25 09:03:25;;;;;;;3.47;1.40;;;25.40;58.00;;;;;;5114007;28;20498;-75
2022/07/25 09:05:51;;;;;;;4.78;1.50;;;25.40;58.10;;;;;;5114143;28;20016;-74
2022/07/25 09:08:17;;;;;;;3.83;1.67;;;25.40;57.20;;;;;;5114099;28;20027;-74
2022/07/25 09:10:50;;;;;;;2.58;1.40;;;25.40;57.40;;;;;;5114255;28;20036;-74
2022/07/25 09:13:18;;;;;;;7.90;1.60;;;25.50;58.00;;;;;;5096272;28;20024;-74
2022/07/25 09:15:48;;;;;;;3.75;1.42;;;25.50;57.70;;;;;;5114152;28;20050;-74
2022/07/25 09:18:15;;;;;;;3.65;1.00;;;25.60;58.00;;;;;;5114199;28;20024;-74
2022/07/25 09:20:44;;;;;;;3.20;1.20;;;25.60;57.40;;;;;;5114148;28;20088;-74
2022/07/25 09:23:27;;;;;;;1.90;0.93;;;25.60;56.80;;;;;;5114082;28;20028;-73
2022/07/25 09:26:01;;;;;;;1.33;0.80;;;25.70;57.40;;;;;;5114074;28;20030;-74
2022/07/25 09:28:26;;;;;;;1.95;1.08;;;25.70;56.70;;;;;;5114061;28;20020;-74
2022/07/25 09:30:53;;;;;;;4.25;1.25;;;25.80;58.10;;;;;;5113844;28;20059;-73
2022/07/25 09:33:20;;;;;;;2.42;1.25;;;25.80;58.40;;;;;;5113898;28;20028;-74
2022/07/25 09:35:46;;;;;;;1.48;0.80;;;25.80;57.80;;;;;;5113808;28;20024;-73
2022/07/25 09:38:14;;;;;;;1.23;0.93;;;26.00;57.90;;;;;;5113857;28;20050;-74
2022/07/25 09:40:40;;;;;;;1.35;0.70;;;26.10;57.80;;;;;;5113839;28;20024;-74
2022/07/25 09:43:06;;;;;;;2.20;0.90;;;26.20;58.70;;;;;;5113737;28;20020;-76
2022/07/25 09:45:32;;;;;;;1.88;0.98;;;26.30;58.40;;;;;;5113713;28;20028;-73
2022/07/25 09:48:01;;;;;;;2.85;1.00;;;26.40;58.00;;;;;;5113694;28;20093;-73
2022/07/25 09:50:28;;;;;;;2.53;1.20;;;26.50;57.70;;;;;;5113552;28;20024;-73
2022/07/25 09:52:57;;;;;;;4.80;1.30;;;26.40;57.10;;;;;;5113643;28;20087;-73
2022/07/25 09:55:23;;;;;;;3.60;1.20;;;26.30;56.90;;;;;;5113579;28;20035;-73
2022/07/25 09:57:51;;;;;;;1.65;0.98;;;26.30;56.50;;;;;;5113564;28;20072;-73
2022/07/25 10:00:23;;;;;;;3.92;0.90;;;26.20;56.80;;;;;;5113517;28;20031;-73
2022/07/25 10:03:04;;;;;;;;;;;26.30;57.10;;;;;;5113999;28;20042;-73
2022/07/25 10:05:42;;;;;;;2.85;1.10;;;26.30;55.80;;;;;;5113436;28;19904;-73
2022/07/25 10:08:08;;;;;;;2.83;1.05;;;26.20;55.60;;;;;;5113474;28;20028;-74
2022/07/25 10:10:39;;;;;;;1.83;0.90;;;26.30;56.40;;;;;;5095508;28;20051;-74
2022/07/25 10:13:14;;;;;;;3.33;1.20;;;26.40;56.20;;;;;;5095779;28;20034;-74
2022/07/25 10:15:49;;;;;;;2.63;1.20;;;26.50;55.80;;;;;;5115363;28;20038;-75
2022/07/25 10:18:18;;;;;;;2.55;1.17;;;26.60;55.10;;;;;;5117592;28;20016;-74
2022/07/25 10:20:45;;;;;;;3.60;1.33;;;26.60;54.90;;;;;;5117435;28;20043;-73
2022/07/25 10:23:18;;;;;;;4.47;1.52;;;26.50;56.20;;;;;;5117542;28;20111;-74
2022/07/25 10:25:44;;;;;;;3.78;1.83;;;26.60;55.60;;;;;;5099676;28;20034;-74
2022/07/25 10:28:11;;;;;;;2.08;1.10;;;26.70;55.60;;;;;;5117275;28;20028;-74
2022/07/25 10:30:38;;;;;;;3.83;1.42;;;26.80;55.10;;;;;;5117271;28;20055;-73
2022/07/25 10:33:14;;;;;;;2.53;1.27;;;26.80;54.30;;;;;;5117237;28;20025;-74
2022/07/25 10:35:41;;;;;;;5.30;1.55;;;26.60;54.10;;;;;;5117261;28;20039;-73
2022/07/25 10:38:07;;;;;;;3.58;1.60;;;26.60;54.70;;;;;;5117166;28;20042;-74
2022/07/25 10:40:35;;;;;;;3.15;1.45;;;26.70;53.80;;;;;;5117163;28;20028;-73
2022/07/25 10:43:04;;;;;;;3.03;1.60;;;26.70;53.60;;;;;;5117068;28;20027;-73
2022/07/25 10:45:40;;;;;;;2.03;1.60;;;26.70;54.90;;;;;;5117075;28;20048;-73
2022/07/25 10:48:07;;;;;;;4.57;1.95;;;26.70;54.60;;;;;;5117206;28;20020;-73
2022/07/25 10:50:33;;;;;;;3.50;1.65;;;26.70;56.00;;;;;;5116958;28;20550;-73
2022/07/25 10:53:00;;;;;;;3.78;1.60;;;26.80;54.00;;;;;;5116943;28;20039;-73
2022/07/25 10:55:27;;;;;;;1.98;1.55;;;26.70;53.80;;;;;;5116858;28;20082;-73
2022/07/25 10:58:05;;;;;;;2.97;1.80;;;26.60;53.20;;;;;;5116874;28;20021;-72
2022/07/25 11:00:32;;;;;;;2.97;1.83;;;26.60;52.30;;;;;;5116773;28;20443;-73
2022/07/25 11:02:59;;;;;;;4.55;2.05;;;26.70;55.10;;;;;;5116780;28;20075;-73
2022/07/25 11:05:24;;;;;;;3.25;1.88;;;26.80;54.70;;;;;;5116679;28;20024;-73
2022/07/25 11:07:52;;;;;;;3.42;2.10;;;26.70;52.90;;;;;;5116611;28;20557;-72
2022/07/25 11:10:26;;;;;;;2.75;2.08;;;26.60;52.90;;;;;;5116402;28;20044;-73
2022/07/25 11:12:52;;;;;;;4.57;2.00;;;26.60;52.30;;;;;;5116549;28;20020;-75
2022/07/25 11:15:22;;;;;;;4.03;2.10;;;26.60;52.90;;;;;;5116471;28;20031;-73
2022/07/25 11:17:52;;;;;;;6.07;2.80;;;26.70;53.40;;;;;;5116510;28;20051;-73
2022/07/25 11:20:18;;;;;;;2.97;2.05;;;26.70;53.20;;;;;;5116376;28;20096;-73
2022/07/25 11:22:54;;;;;;;4.63;2.10;;;26.60;52.90;;;;;;5116329;28;20107;-73
2022/07/25 11:25:22;;;;;;;3.60;2.53;;;26.50;52.40;;;;;;5116604;28;20032;-73
2022/07/25 11:27:58;;;;;;;3.65;2.00;;;26.40;54.40;;;;;;5115281;28;20032;-74
2022/07/25 11:30:26;;;;;;;4.13;1.67;;;26.30;52.20;;;;;;5116106;28;20028;-73
2022/07/25 11:32:54;;;;;;;3.28;1.73;;;26.40;52.80;;;;;;5116162;28;20047;-73
2022/07/25 11:35:26;;;;;;;4.10;1.90;;;26.50;52.30;;;;;;5115879;28;20050;-72
2022/07/25 11:37:53;;;;;;;2.50;1.65;;;26.50;52.50;;;;;;5116134;28;20061;-73
2022/07/25 11:40:20;;;;;;;3.03;1.98;;;26.50;50.80;;;;;;5115975;28;20028;-73
2022/07/25 11:42:54;;;;;;;4.47;1.92;;;26.50;51.70;;;;;;5098089;28;20032;-73
2022/07/25 11:45:27;;;;;;;4.65;1.90;;;26.40;51.70;;;;;;5115930;28;20032;-74
2022/07/25 11:48:06;;;;;;;3.13;2.00;;;26.40;52.70;;;;;;5115891;28;20056;-74
2022/07/25 11:50:35;;;;;;;3.78;2.08;;;26.40;51.30;;;;;;5115816;28;20079;-73
2022/07/25 11:53:04;;;;;;;5.03;2.30;;;26.30;51.60;;;;;;5115772;28;20020;-73
2022/07/25 11:55:32;;;;;;;3.38;2.08;;;26.30;51.40;;;;;;5115715;28;20016;-73
2022/07/25 11:58:00;;;;;;;4.90;2.55;;;26.30;51.90;;;;;;5115672;28;20098;-73
2022/07/25 12:00:26;;;;;;;6.30;2.55;;;26.40;52.10;;;;;;5115602;28;20024;-74
2022/07/25 12:02:52;;;;;;;5.20;2.30;;;26.40;51.70;;;;;;5115583;28;20028;-74
2022/07/25 12:05:20;;;;;;;3.72;2.40;;;26.40;51.40;;;;;;5115535;28;20058;-74
2022/07/25 12:07:47;;;;;;;7.25;2.58;;;26.60;51.70;;;;;;5115344;28;20024;-74
2022/07/25 12:10:12;;;;;;;3.10;2.40;;;26.70;50.80;;;;;;5115210;28;20509;-74
2022/07/25 12:12:47;;;;;;;6.95;2.45;;;26.80;50.00;;;;;;5115358;28;20020;-74
2022/07/25 12:15:14;;;;;;;4.72;3.05;;;26.90;50.00;;;;;;5115398;28;20084;-74
2022/07/25 12:17:41;;;;;;;3.42;3.10;;;26.80;49.50;;;;;;5115294;28;20382;-74
2022/07/25 12:20:17;;;;;;;5.65;3.03;;;26.70;49.20;;;;;;5097332;28;20024;-74
2022/07/25 12:22:43;;;;;;;8.05;4.20;;;26.80;50.50;;;;;;5115194;28;20035;-73
2022/07/25 12:25:09;;;;;;;4.38;3.90;;;26.80;50.20;;;;;;5115254;28;20049;-73
2022/07/25 12:27:35;;;;;;;4.93;3.85;;;26.70;50.70;;;;;;5115062;28;20028;-73
2022/07/25 12:30:01;;;;;;;5.05;3.70;;;26.70;51.40;;;;;;5114880;28;20082;-73
2022/07/25 12:32:27;;;;;;;8.98;4.10;;;26.60;50.50;;;;;;5114936;28;20024;-74
2022/07/25 12:34:52;;;;;;;6.13;3.47;;;26.60;50.80;;;;;;5114931;28;20070;-74
2022/07/25 12:37:20;;;;;;;5.22;2.83;;;26.80;51.20;;;;;;5114868;28;20137;-73
2022/07/25 12:39:46;;;;;;;5.10;3.15;;;26.90;50.80;;;;;;5114829;28;20024;-73